sensor_id;sensor_type;location;lat;lon;timestamp;P1;durP1;ratioP1;P2;durP2;ratioP2
38487;SDS011;57384;51.986;4.458;2023-04-29T00:01:33;16.40;;;2.30;;
38487;SDS011;57384;51.986;4.458;2023-04-29T00:17:43;6.07;;;1.88;;
38487;SDS011;57384;51.986;4.458;2023-04-29T00:20:34;7.75;;;1.45;;
38487;SDS011;57384;51.986;4.458;2023-04-29T00:26:42;12.32;;;1.85;;
38487;SDS011;57384;51.986;4.458;2023-04-29T00:30:05;5.80;;;1.73;;
38487;SDS011;57384;51.986;4.458;2023-04-29T00:33:00;10.05;;;2.67;;
38487;SDS011;57384;51.986;4.458;2023-04-29T00:39:17;8.85;;;2.63;;
38487;SDS011;57384;51.986;4.458;2023-04-29T00:46:08;12.48;;;2.08;;
38487;SDS011;57384;51.986;4.458;2023-04-29T00:49:07;6.80;;;2.63;;
38487;SDS011;57384;51.986;4.458;2023-04-29T00:51:59;9.77;;;1.70;;
38487;SDS011;57384;51.986;4.458;2023-04-29T00:55:07;11.38;;;2.72;;
38487;SDS011;57384;51.986;4.458;2023-04-29T00:58:48;8.05;;;2.70;;
38487;SDS011;57384;51.986;4.458;2023-04-29T01:01:48;13.63;;;3.00;;
38487;SDS011;57384;51.986;4.458;2023-04-29T01:14:34;13.88;;;1.75;;
38487;SDS011;57384;51.986;4.458;2023-04-29T01:17:38;9.70;;;2.30;;
38487;SDS011;57384;51.986;4.458;2023-04-29T01:37:21;8.25;;;2.60;;
38487;SDS011;57384;51.986;4.458;2023-04-29T01:47:44;7.85;;;1.95;;
38487;SDS011;57384;51.986;4.458;2023-04-29T01:50:55;7.85;;;2.08;;
38487;SDS011;57384;51.986;4.458;2023-04-29T02:03:57;9.13;;;2.38;;
38487;SDS011;57384;51.986;4.458;2023-04-29T02:07:04;15.50;;;2.33;;
38487;SDS011;57384;51.986;4.458;2023-04-29T02:10:06;9.15;;;2.15;;
38487;SDS011;57384;51.986;4.458;2023-04-29T02:12:59;9.73;;;2.55;;
38487;SDS011;57384;51.986;4.458;2023-04-29T02:18:57;9.55;;;1.95;;
38487;SDS011;57384;51.986;4.458;2023-04-29T02:21:59;7.28;;;2.05;;
38487;SDS011;57384;51.986;4.458;2023-04-29T02:24:52;10.77;;;3.03;;
38487;SDS011;57384;51.986;4.458;2023-04-29T02:27:39;6.05;;;2.15;;
38487;SDS011;57384;51.986;4.458;2023-04-29T02:30:34;9.27;;;1.77;;
38487;SDS011;57384;51.986;4.458;2023-04-29T02:36:22;9.93;;;2.65;;
38487;SDS011;57384;51.986;4.458;2023-04-29T02:42:13;8.35;;;2.17;;
38487;SDS011;57384;51.986;4.458;2023-04-29T02:45:07;8.07;;;2.05;;
38487;SDS011;57384;51.986;4.458;2023-04-29T02:48:02;12.13;;;2.30;;
38487;SDS011;57384;51.986;4.458;2023-04-29T02:50:56;6.40;;;2.03;;
38487;SDS011;57384;51.986;4.458;2023-04-29T02:53:46;7.35;;;2.78;;
38487;SDS011;57384;51.986;4.458;2023-04-29T02:56:33;7.93;;;2.20;;
38487;SDS011;57384;51.986;4.458;2023-04-29T02:59:20;5.75;;;2.10;;
38487;SDS011;57384;51.986;4.458;2023-04-29T03:05:14;9.75;;;1.67;;
38487;SDS011;57384;51.986;4.458;2023-04-29T03:08:02;6.55;;;1.63;;
38487;SDS011;57384;51.986;4.458;2023-04-29T03:10:46;5.18;;;1.88;;
38487;SDS011;57384;51.986;4.458;2023-04-29T03:13:41;9.07;;;1.60;;
38487;SDS011;57384;51.986;4.458;2023-04-29T03:16:31;8.85;;;2.28;;
38487;SDS011;57384;51.986;4.458;2023-04-29T03:19:27;9.23;;;2.85;;
38487;SDS011;57384;51.986;4.458;2023-04-29T03:22:11;6.70;;;1.55;;
38487;SDS011;57384;51.986;4.458;2023-04-29T03:25:04;6.95;;;1.73;;
38487;SDS011;57384;51.986;4.458;2023-04-29T03:27:48;6.95;;;1.92;;
38487;SDS011;57384;51.986;4.458;2023-04-29T03:30:45;6.55;;;1.90;;
38487;SDS011;57384;51.986;4.458;2023-04-29T03:33:51;7.25;;;2.15;;
38487;SDS011;57384;51.986;4.458;2023-04-29T03:40:00;11.35;;;2.05;;
38487;SDS011;57384;51.986;4.458;2023-04-29T03:42:47;6.75;;;1.52;;
38487;SDS011;57384;51.986;4.458;2023-04-29T03:45:39;5.40;;;1.20;;
38487;SDS011;57384;51.986;4.458;2023-04-29T03:48:29;13.63;;;2.00;;
38487;SDS011;57384;51.986;4.458;2023-04-29T03:51:14;9.02;;;2.13;;
38487;SDS011;57384;51.986;4.458;2023-04-29T03:54:02;7.32;;;1.33;;
38487;SDS011;57384;51.986;4.458;2023-04-29T03:56:46;6.07;;;1.17;;
38487;SDS011;57384;51.986;4.458;2023-04-29T03:59:38;7.82;;;2.55;;
38487;SDS011;57384;51.986;4.458;2023-04-29T04:02:29;6.32;;;1.38;;
38487;SDS011;57384;51.986;4.458;2023-04-29T04:05:19;7.75;;;2.15;;
38487;SDS011;57384;51.986;4.458;2023-04-29T04:11:21;8.20;;;1.73;;
38487;SDS011;57384;51.986;4.458;2023-04-29T04:14:05;12.55;;;2.70;;
38487;SDS011;57384;51.986;4.458;2023-04-29T04:16:49;8.32;;;1.67;;
38487;SDS011;57384;51.986;4.458;2023-04-29T04:19:40;8.32;;;1.98;;
38487;SDS011;57384;51.986;4.458;2023-04-29T04:22:25;5.15;;;1.38;;
38487;SDS011;57384;51.986;4.458;2023-04-29T04:25:09;5.88;;;1.10;;
38487;SDS011;57384;51.986;4.458;2023-04-29T04:27:53;9.10;;;2.13;;
38487;SDS011;57384;51.986;4.458;2023-04-29T04:30:37;6.93;;;1.85;;
38487;SDS011;57384;51.986;4.458;2023-04-29T04:33:21;7.82;;;1.90;;
38487;SDS011;57384;51.986;4.458;2023-04-29T04:36:06;11.07;;;2.80;;
38487;SDS011;57384;51.986;4.458;2023-04-29T04:38:50;9.95;;;2.58;;
38487;SDS011;57384;51.986;4.458;2023-04-29T04:41:37;8.25;;;2.47;;
38487;SDS011;57384;51.986;4.458;2023-04-29T04:44:24;4.85;;;1.88;;
38487;SDS011;57384;51.986;4.458;2023-04-29T04:47:17;9.88;;;2.13;;
38487;SDS011;57384;51.986;4.458;2023-04-29T04:50:07;11.00;;;1.88;;
38487;SDS011;57384;51.986;4.458;2023-04-29T04:52:53;6.28;;;1.60;;
38487;SDS011;57384;51.986;4.458;2023-04-29T04:55:40;8.60;;;2.25;;
38487;SDS011;57384;51.986;4.458;2023-04-29T04:58:36;9.48;;;1.95;;
38487;SDS011;57384;51.986;4.458;2023-04-29T05:01:21;11.60;;;2.25;;
38487;SDS011;57384;51.986;4.458;2023-04-29T05:06:55;13.18;;;2.25;;
38487;SDS011;57384;51.986;4.458;2023-04-29T05:09:42;9.85;;;1.77;;
38487;SDS011;57384;51.986;4.458;2023-04-29T05:12:29;11.90;;;1.88;;
38487;SDS011;57384;51.986;4.458;2023-04-29T05:15:43;17.60;;;3.75;;
38487;SDS011;57384;51.986;4.458;2023-04-29T05:18:40;6.75;;;1.67;;
38487;SDS011;57384;51.986;4.458;2023-04-29T05:21:30;17.80;;;2.97;;
38487;SDS011;57384;51.986;4.458;2023-04-29T05:24:17;11.25;;;2.67;;
38487;SDS011;57384;51.986;4.458;2023-04-29T05:27:19;9.25;;;2.85;;
38487;SDS011;57384;51.986;4.458;2023-04-29T05:30:06;11.27;;;3.30;;
38487;SDS011;57384;51.986;4.458;2023-04-29T05:32:51;13.05;;;3.10;;
38487;SDS011;57384;51.986;4.458;2023-04-29T05:35:50;10.05;;;2.67;;
38487;SDS011;57384;51.986;4.458;2023-04-29T05:38:51;10.75;;;3.67;;
38487;SDS011;57384;51.986;4.458;2023-04-29T05:44:31;11.45;;;3.22;;
38487;SDS011;57384;51.986;4.458;2023-04-29T05:47:18;8.23;;;2.35;;
38487;SDS011;57384;51.986;4.458;2023-04-29T05:50:08;15.15;;;4.47;;
38487;SDS011;57384;51.986;4.458;2023-04-29T05:53:01;14.93;;;3.17;;
38487;SDS011;57384;51.986;4.458;2023-04-29T05:55:51;13.57;;;3.63;;
38487;SDS011;57384;51.986;4.458;2023-04-29T05:58:56;16.17;;;4.10;;
38487;SDS011;57384;51.986;4.458;2023-04-29T06:01:42;16.10;;;4.10;;
38487;SDS011;57384;51.986;4.458;2023-04-29T06:04:30;8.77;;;2.38;;
38487;SDS011;57384;51.986;4.458;2023-04-29T06:07:14;9.93;;;3.95;;
38487;SDS011;57384;51.986;4.458;2023-04-29T06:10:09;15.93;;;2.80;;
38487;SDS011;57384;51.986;4.458;2023-04-29T06:13:11;10.15;;;3.55;;
38487;SDS011;57384;51.986;4.458;2023-04-29T06:16:12;12.40;;;3.72;;
38487;SDS011;57384;51.986;4.458;2023-04-29T06:19:14;10.82;;;2.97;;
38487;SDS011;57384;51.986;4.458;2023-04-29T06:22:11;10.25;;;2.28;;
38487;SDS011;57384;51.986;4.458;2023-04-29T06:24:58;11.82;;;3.85;;
38487;SDS011;57384;51.986;4.458;2023-04-29T06:27:42;11.68;;;2.55;;
38487;SDS011;57384;51.986;4.458;2023-04-29T06:30:30;12.10;;;2.75;;
38487;SDS011;57384;51.986;4.458;2023-04-29T06:33:14;10.18;;;2.20;;
38487;SDS011;57384;51.986;4.458;2023-04-29T06:35:58;9.10;;;2.40;;
38487;SDS011;57384;51.986;4.458;2023-04-29T06:38:45;18.35;;;2.65;;
38487;SDS011;57384;51.986;4.458;2023-04-29T06:41:30;6.10;;;1.73;;
38487;SDS011;57384;51.986;4.458;2023-04-29T06:44:15;5.88;;;1.52;;
38487;SDS011;57384;51.986;4.458;2023-04-29T06:47:09;7.13;;;1.77;;
38487;SDS011;57384;51.986;4.458;2023-04-29T06:49:54;7.82;;;2.22;;
38487;SDS011;57384;51.986;4.458;2023-04-29T06:52:40;5.18;;;1.65;;
38487;SDS011;57384;51.986;4.458;2023-04-29T06:55:24;8.23;;;2.03;;
38487;SDS011;57384;51.986;4.458;2023-04-29T06:58:08;7.15;;;1.45;;
38487;SDS011;57384;51.986;4.458;2023-04-29T07:00:52;8.20;;;1.67;;
38487;SDS011;57384;51.986;4.458;2023-04-29T07:03:40;7.28;;;1.60;;
38487;SDS011;57384;51.986;4.458;2023-04-29T07:06:32;5.57;;;1.50;;
38487;SDS011;57384;51.986;4.458;2023-04-29T07:09:16;7.95;;;2.42;;
38487;SDS011;57384;51.986;4.458;2023-04-29T07:12:00;9.93;;;1.55;;
38487;SDS011;57384;51.986;4.458;2023-04-29T07:14:44;5.85;;;1.08;;
38487;SDS011;57384;51.986;4.458;2023-04-29T07:17:29;6.65;;;1.73;;
38487;SDS011;57384;51.986;4.458;2023-04-29T07:20:16;8.77;;;1.45;;
38487;SDS011;57384;51.986;4.458;2023-04-29T07:23:00;12.07;;;1.77;;
38487;SDS011;57384;51.986;4.458;2023-04-29T07:25:45;5.45;;;1.00;;
38487;SDS011;57384;51.986;4.458;2023-04-29T07:28:29;4.10;;;0.98;;
38487;SDS011;57384;51.986;4.458;2023-04-29T07:34:00;4.32;;;1.00;;
38487;SDS011;57384;51.986;4.458;2023-04-29T07:36:46;7.20;;;0.80;;
38487;SDS011;57384;51.986;4.458;2023-04-29T07:39:30;7.63;;;0.77;;
38487;SDS011;57384;51.986;4.458;2023-04-29T07:42:14;6.18;;;0.90;;
38487;SDS011;57384;51.986;4.458;2023-04-29T07:45:00;4.68;;;0.70;;
38487;SDS011;57384;51.986;4.458;2023-04-29T07:47:44;3.25;;;0.90;;
38487;SDS011;57384;51.986;4.458;2023-04-29T07:50:29;5.60;;;0.77;;
38487;SDS011;57384;51.986;4.458;2023-04-29T07:53:16;4.85;;;0.80;;
38487;SDS011;57384;51.986;4.458;2023-04-29T07:56:03;2.53;;;0.70;;
38487;SDS011;57384;51.986;4.458;2023-04-29T07:58:49;3.92;;;0.70;;
38487;SDS011;57384;51.986;4.458;2023-04-29T08:01:34;5.07;;;1.10;;
38487;SDS011;57384;51.986;4.458;2023-04-29T08:04:18;3.70;;;0.68;;
38487;SDS011;57384;51.986;4.458;2023-04-29T08:07:03;4.90;;;0.70;;
38487;SDS011;57384;51.986;4.458;2023-04-29T08:09:47;5.47;;;1.00;;
38487;SDS011;57384;51.986;4.458;2023-04-29T08:12:32;2.95;;;0.60;;
38487;SDS011;57384;51.986;4.458;2023-04-29T08:15:16;6.35;;;1.00;;
38487;SDS011;57384;51.986;4.458;2023-04-29T08:18:00;8.52;;;0.70;;
38487;SDS011;57384;51.986;4.458;2023-04-29T08:20:44;5.45;;;0.50;;
38487;SDS011;57384;51.986;4.458;2023-04-29T08:23:30;3.40;;;0.50;;
38487;SDS011;57384;51.986;4.458;2023-04-29T08:26:14;5.82;;;0.65;;
38487;SDS011;57384;51.986;4.458;2023-04-29T08:29:00;5.60;;;0.70;;
38487;SDS011;57384;51.986;4.458;2023-04-29T08:31:44;5.15;;;0.73;;
38487;SDS011;57384;51.986;4.458;2023-04-29T08:34:31;2.00;;;0.50;;
38487;SDS011;57384;51.986;4.458;2023-04-29T08:37:15;4.75;;;0.70;;
38487;SDS011;57384;51.986;4.458;2023-04-29T08:39:59;5.00;;;0.60;;
38487;SDS011;57384;51.986;4.458;2023-04-29T08:42:49;3.05;;;0.70;;
38487;SDS011;57384;51.986;4.458;2023-04-29T08:45:36;3.38;;;0.65;;
38487;SDS011;57384;51.986;4.458;2023-04-29T08:48:24;2.95;;;0.50;;
38487;SDS011;57384;51.986;4.458;2023-04-29T08:51:10;6.97;;;0.80;;
38487;SDS011;57384;51.986;4.458;2023-04-29T08:53:58;8.02;;;0.50;;
38487;SDS011;57384;51.986;4.458;2023-04-29T08:56:45;4.35;;;0.68;;
38487;SDS011;57384;51.986;4.458;2023-04-29T08:59:30;4.30;;;1.00;;
38487;SDS011;57384;51.986;4.458;2023-04-29T09:02:15;3.45;;;0.50;;
38487;SDS011;57384;51.986;4.458;2023-04-29T09:05:12;4.88;;;0.70;;
38487;SDS011;57384;51.986;4.458;2023-04-29T09:10:54;3.10;;;0.50;;
38487;SDS011;57384;51.986;4.458;2023-04-29T09:13:39;5.63;;;0.60;;
38487;SDS011;57384;51.986;4.458;2023-04-29T09:16:34;4.38;;;0.50;;
38487;SDS011;57384;51.986;4.458;2023-04-29T09:19:51;6.45;;;0.60;;
38487;SDS011;57384;51.986;4.458;2023-04-29T09:22:38;3.70;;;0.70;;
38487;SDS011;57384;51.986;4.458;2023-04-29T09:25:34;3.42;;;0.70;;
38487;SDS011;57384;51.986;4.458;2023-04-29T09:28:18;4.13;;;0.70;;
38487;SDS011;57384;51.986;4.458;2023-04-29T09:31:02;4.85;;;0.70;;
38487;SDS011;57384;51.986;4.458;2023-04-29T09:33:53;3.38;;;0.68;;
38487;SDS011;57384;51.986;4.458;2023-04-29T09:36:40;2.97;;;0.50;;
38487;SDS011;57384;51.986;4.458;2023-04-29T09:39:27;2.05;;;0.38;;
38487;SDS011;57384;51.986;4.458;2023-04-29T09:42:22;4.70;;;0.52;;
38487;SDS011;57384;51.986;4.458;2023-04-29T09:45:06;4.30;;;0.60;;
38487;SDS011;57384;51.986;4.458;2023-04-29T09:48:00;4.53;;;0.60;;
38487;SDS011;57384;51.986;4.458;2023-04-29T09:53:43;6.13;;;0.90;;
38487;SDS011;57384;51.986;4.458;2023-04-29T09:56:27;1.80;;;0.50;;
38487;SDS011;57384;51.986;4.458;2023-04-29T09:59:11;1.98;;;0.52;;
38487;SDS011;57384;51.986;4.458;2023-04-29T10:01:56;2.58;;;0.40;;
38487;SDS011;57384;51.986;4.458;2023-04-29T10:04:41;1.52;;;0.50;;
38487;SDS011;57384;51.986;4.458;2023-04-29T10:07:26;4.03;;;0.40;;
38487;SDS011;57384;51.986;4.458;2023-04-29T10:10:11;4.07;;;0.52;;
38487;SDS011;57384;51.986;4.458;2023-04-29T10:12:55;3.15;;;0.60;;
38487;SDS011;57384;51.986;4.458;2023-04-29T10:15:47;5.38;;;0.60;;
38487;SDS011;57384;51.986;4.458;2023-04-29T10:18:40;3.25;;;0.60;;
38487;SDS011;57384;51.986;4.458;2023-04-29T10:21:39;2.13;;;0.30;;
38487;SDS011;57384;51.986;4.458;2023-04-29T10:24:23;2.22;;;0.30;;
38487;SDS011;57384;51.986;4.458;2023-04-29T10:27:10;1.58;;;0.40;;
38487;SDS011;57384;51.986;4.458;2023-04-29T10:29:57;3.88;;;0.50;;
38487;SDS011;57384;51.986;4.458;2023-04-29T10:32:42;2.17;;;0.47;;
38487;SDS011;57384;51.986;4.458;2023-04-29T10:35:27;2.90;;;0.40;;
38487;SDS011;57384;51.986;4.458;2023-04-29T10:38:16;5.15;;;0.50;;
38487;SDS011;57384;51.986;4.458;2023-04-29T10:41:08;3.75;;;0.30;;
38487;SDS011;57384;51.986;4.458;2023-04-29T10:43:59;1.75;;;0.50;;
38487;SDS011;57384;51.986;4.458;2023-04-29T10:46:44;3.53;;;0.50;;
38487;SDS011;57384;51.986;4.458;2023-04-29T10:49:32;2.92;;;0.50;;
38487;SDS011;57384;51.986;4.458;2023-04-29T10:52:16;4.50;;;0.50;;
38487;SDS011;57384;51.986;4.458;2023-04-29T10:55:01;2.40;;;0.50;;
38487;SDS011;57384;51.986;4.458;2023-04-29T10:57:46;2.53;;;0.50;;
38487;SDS011;57384;51.986;4.458;2023-04-29T11:00:33;2.65;;;0.60;;
38487;SDS011;57384;51.986;4.458;2023-04-29T11:09:18;1.20;;;0.40;;
38487;SDS011;57384;51.986;4.458;2023-04-29T11:12:10;5.88;;;0.40;;
38487;SDS011;57384;51.986;4.458;2023-04-29T11:14:54;2.17;;;0.45;;
38487;SDS011;57384;51.986;4.458;2023-04-29T11:17:41;3.42;;;0.40;;
38487;SDS011;57384;51.986;4.458;2023-04-29T11:20:25;3.08;;;0.50;;
38487;SDS011;57384;51.986;4.458;2023-04-29T11:23:09;1.70;;;0.50;;
38487;SDS011;57384;51.986;4.458;2023-04-29T11:25:53;2.67;;;0.45;;
38487;SDS011;57384;51.986;4.458;2023-04-29T11:28:38;2.47;;;0.30;;
38487;SDS011;57384;51.986;4.458;2023-04-29T11:31:34;2.35;;;0.30;;
38487;SDS011;57384;51.986;4.458;2023-04-29T11:34:23;1.77;;;0.40;;
38487;SDS011;57384;51.986;4.458;2023-04-29T11:37:08;1.88;;;0.50;;
38487;SDS011;57384;51.986;4.458;2023-04-29T11:40:01;5.15;;;0.50;;
38487;SDS011;57384;51.986;4.458;2023-04-29T11:42:46;0.88;;;0.20;;
38487;SDS011;57384;51.986;4.458;2023-04-29T11:45:33;2.47;;;0.40;;
38487;SDS011;57384;51.986;4.458;2023-04-29T11:48:18;1.50;;;0.45;;
38487;SDS011;57384;51.986;4.458;2023-04-29T11:51:03;2.28;;;0.40;;
38487;SDS011;57384;51.986;4.458;2023-04-29T11:53:47;1.35;;;0.43;;
38487;SDS011;57384;51.986;4.458;2023-04-29T11:56:31;3.42;;;0.50;;
38487;SDS011;57384;51.986;4.458;2023-04-29T11:59:15;2.90;;;0.30;;
38487;SDS011;57384;51.986;4.458;2023-04-29T12:01:59;1.45;;;0.40;;
38487;SDS011;57384;51.986;4.458;2023-04-29T12:04:44;1.73;;;0.40;;
38487;SDS011;57384;51.986;4.458;2023-04-29T12:07:29;1.65;;;0.40;;
38487;SDS011;57384;51.986;4.458;2023-04-29T12:10:13;3.08;;;0.30;;
38487;SDS011;57384;51.986;4.458;2023-04-29T12:12:57;2.72;;;0.63;;
38487;SDS011;57384;51.986;4.458;2023-04-29T12:15:41;4.20;;;0.40;;
38487;SDS011;57384;51.986;4.458;2023-04-29T12:18:27;2.50;;;0.43;;
38487;SDS011;57384;51.986;4.458;2023-04-29T12:21:11;1.95;;;0.30;;
38487;SDS011;57384;51.986;4.458;2023-04-29T12:23:57;4.35;;;0.60;;
38487;SDS011;57384;51.986;4.458;2023-04-29T12:26:43;5.07;;;0.60;;
38487;SDS011;57384;51.986;4.458;2023-04-29T12:29:27;3.15;;;0.40;;
38487;SDS011;57384;51.986;4.458;2023-04-29T12:32:15;3.63;;;0.40;;
38487;SDS011;57384;51.986;4.458;2023-04-29T12:35:00;4.40;;;0.60;;
38487;SDS011;57384;51.986;4.458;2023-04-29T12:37:50;3.42;;;0.47;;
38487;SDS011;57384;51.986;4.458;2023-04-29T12:40:34;5.57;;;0.60;;
38487;SDS011;57384;51.986;4.458;2023-04-29T12:43:19;3.10;;;0.50;;
38487;SDS011;57384;51.986;4.458;2023-04-29T12:46:11;2.97;;;0.50;;
38487;SDS011;57384;51.986;4.458;2023-04-29T12:48:56;1.95;;;0.50;;
38487;SDS011;57384;51.986;4.458;2023-04-29T12:51:40;4.10;;;0.60;;
38487;SDS011;57384;51.986;4.458;2023-04-29T12:54:24;2.08;;;0.30;;
38487;SDS011;57384;51.986;4.458;2023-04-29T12:57:09;2.42;;;0.30;;
38487;SDS011;57384;51.986;4.458;2023-04-29T12:59:54;2.63;;;0.30;;
38487;SDS011;57384;51.986;4.458;2023-04-29T13:02:38;2.55;;;0.40;;
38487;SDS011;57384;51.986;4.458;2023-04-29T13:05:22;2.03;;;0.30;;
38487;SDS011;57384;51.986;4.458;2023-04-29T13:08:06;2.63;;;0.50;;
38487;SDS011;57384;51.986;4.458;2023-04-29T13:10:50;2.65;;;0.63;;
38487;SDS011;57384;51.986;4.458;2023-04-29T13:13:35;1.48;;;0.38;;
38487;SDS011;57384;51.986;4.458;2023-04-29T13:16:22;4.72;;;0.68;;
38487;SDS011;57384;51.986;4.458;2023-04-29T13:19:06;3.42;;;0.60;;
38487;SDS011;57384;51.986;4.458;2023-04-29T13:21:50;4.60;;;0.47;;
38487;SDS011;57384;51.986;4.458;2023-04-29T13:24:34;1.30;;;0.38;;
38487;SDS011;57384;51.986;4.458;2023-04-29T13:27:18;3.97;;;0.40;;
38487;SDS011;57384;51.986;4.458;2023-04-29T13:30:03;5.82;;;0.50;;
38487;SDS011;57384;51.986;4.458;2023-04-29T13:32:48;3.97;;;0.40;;
38487;SDS011;57384;51.986;4.458;2023-04-29T13:35:32;1.20;;;0.20;;
38487;SDS011;57384;51.986;4.458;2023-04-29T13:38:17;1.77;;;0.40;;
38487;SDS011;57384;51.986;4.458;2023-04-29T13:41:01;4.68;;;0.40;;
38487;SDS011;57384;51.986;4.458;2023-04-29T13:43:45;5.20;;;0.40;;
38487;SDS011;57384;51.986;4.458;2023-04-29T13:46:29;3.15;;;0.40;;
38487;SDS011;57384;51.986;4.458;2023-04-29T13:49:13;1.77;;;0.40;;
38487;SDS011;57384;51.986;4.458;2023-04-29T13:51:57;4.18;;;0.30;;
38487;SDS011;57384;51.986;4.458;2023-04-29T13:54:42;3.70;;;0.60;;
38487;SDS011;57384;51.986;4.458;2023-04-29T13:57:26;2.22;;;0.73;;
38487;SDS011;57384;51.986;4.458;2023-04-29T14:00:10;1.60;;;0.40;;
38487;SDS011;57384;51.986;4.458;2023-04-29T14:02:54;1.58;;;0.40;;
38487;SDS011;57384;51.986;4.458;2023-04-29T14:05:38;3.33;;;0.45;;
38487;SDS011;57384;51.986;4.458;2023-04-29T14:08:23;2.60;;;0.30;;
38487;SDS011;57384;51.986;4.458;2023-04-29T14:11:07;1.40;;;0.40;;
38487;SDS011;57384;51.986;4.458;2023-04-29T14:13:51;3.40;;;0.47;;
38487;SDS011;57384;51.986;4.458;2023-04-29T14:16:36;3.95;;;0.30;;
38487;SDS011;57384;51.986;4.458;2023-04-29T14:19:21;2.60;;;0.30;;
38487;SDS011;57384;51.986;4.458;2023-04-29T14:22:06;1.65;;;0.30;;
38487;SDS011;57384;51.986;4.458;2023-04-29T14:24:50;2.75;;;0.35;;
38487;SDS011;57384;51.986;4.458;2023-04-29T14:27:34;3.33;;;0.30;;
38487;SDS011;57384;51.986;4.458;2023-04-29T14:30:18;1.60;;;0.22;;
38487;SDS011;57384;51.986;4.458;2023-04-29T14:33:02;3.00;;;0.30;;
38487;SDS011;57384;51.986;4.458;2023-04-29T14:35:46;3.05;;;0.40;;
38487;SDS011;57384;51.986;4.458;2023-04-29T14:38:30;2.50;;;0.30;;
38487;SDS011;57384;51.986;4.458;2023-04-29T14:41:14;2.13;;;0.28;;
38487;SDS011;57384;51.986;4.458;2023-04-29T14:43:59;2.78;;;0.40;;
38487;SDS011;57384;51.986;4.458;2023-04-29T14:46:43;1.38;;;0.30;;
38487;SDS011;57384;51.986;4.458;2023-04-29T14:49:27;2.40;;;0.40;;
38487;SDS011;57384;51.986;4.458;2023-04-29T14:52:11;3.20;;;0.35;;
38487;SDS011;57384;51.986;4.458;2023-04-29T14:54:55;2.58;;;0.40;;
38487;SDS011;57384;51.986;4.458;2023-04-29T14:57:40;1.67;;;0.50;;
38487;SDS011;57384;51.986;4.458;2023-04-29T15:00:24;3.08;;;0.30;;
38487;SDS011;57384;51.986;4.458;2023-04-29T15:03:08;4.32;;;0.40;;
38487;SDS011;57384;51.986;4.458;2023-04-29T15:05:52;1.80;;;0.40;;
38487;SDS011;57384;51.986;4.458;2023-04-29T15:08:40;4.70;;;0.40;;
38487;SDS011;57384;51.986;4.458;2023-04-29T15:11:24;2.63;;;0.40;;
38487;SDS011;57384;51.986;4.458;2023-04-29T15:14:08;1.77;;;0.30;;
38487;SDS011;57384;51.986;4.458;2023-04-29T15:16:53;1.75;;;0.30;;
38487;SDS011;57384;51.986;4.458;2023-04-29T15:19:37;4.20;;;0.40;;
38487;SDS011;57384;51.986;4.458;2023-04-29T15:22:21;3.83;;;0.40;;
38487;SDS011;57384;51.986;4.458;2023-04-29T15:25:06;4.72;;;0.40;;
38487;SDS011;57384;51.986;4.458;2023-04-29T15:27:50;2.13;;;0.40;;
38487;SDS011;57384;51.986;4.458;2023-04-29T15:30:34;1.83;;;0.32;;
38487;SDS011;57384;51.986;4.458;2023-04-29T15:33:25;1.98;;;0.30;;
38487;SDS011;57384;51.986;4.458;2023-04-29T15:36:09;1.38;;;0.45;;
38487;SDS011;57384;51.986;4.458;2023-04-29T15:38:53;3.10;;;0.40;;
38487;SDS011;57384;51.986;4.458;2023-04-29T15:41:37;1.73;;;0.35;;
38487;SDS011;57384;51.986;4.458;2023-04-29T15:44:21;2.15;;;0.40;;
38487;SDS011;57384;51.986;4.458;2023-04-29T15:47:05;1.80;;;0.28;;
38487;SDS011;57384;51.986;4.458;2023-04-29T15:49:49;1.08;;;0.30;;
38487;SDS011;57384;51.986;4.458;2023-04-29T15:52:33;2.65;;;0.50;;
38487;SDS011;57384;51.986;4.458;2023-04-29T15:55:17;3.40;;;0.40;;
38487;SDS011;57384;51.986;4.458;2023-04-29T15:58:01;3.05;;;0.47;;
38487;SDS011;57384;51.986;4.458;2023-04-29T16:00:45;1.70;;;0.38;;
38487;SDS011;57384;51.986;4.458;2023-04-29T16:03:30;4.50;;;0.30;;
38487;SDS011;57384;51.986;4.458;2023-04-29T16:06:15;1.48;;;0.28;;
38487;SDS011;57384;51.986;4.458;2023-04-29T16:08:59;3.83;;;0.40;;
38487;SDS011;57384;51.986;4.458;2023-04-29T16:11:43;3.25;;;0.30;;
38487;SDS011;57384;51.986;4.458;2023-04-29T16:14:27;3.03;;;0.30;;
38487;SDS011;57384;51.986;4.458;2023-04-29T16:17:19;1.13;;;0.30;;
38487;SDS011;57384;51.986;4.458;2023-04-29T16:20:03;1.42;;;0.30;;
38487;SDS011;57384;51.986;4.458;2023-04-29T16:22:48;3.53;;;0.38;;
38487;SDS011;57384;51.986;4.458;2023-04-29T16:25:40;4.57;;;0.30;;
38487;SDS011;57384;51.986;4.458;2023-04-29T16:28:25;3.17;;;0.40;;
38487;SDS011;57384;51.986;4.458;2023-04-29T16:31:09;1.08;;;0.22;;
38487;SDS011;57384;51.986;4.458;2023-04-29T16:33:54;1.70;;;0.30;;
38487;SDS011;57384;51.986;4.458;2023-04-29T16:36:38;3.60;;;0.30;;
38487;SDS011;57384;51.986;4.458;2023-04-29T16:39:22;4.72;;;0.40;;
38487;SDS011;57384;51.986;4.458;2023-04-29T16:42:06;2.10;;;0.20;;
38487;SDS011;57384;51.986;4.458;2023-04-29T16:44:55;0.88;;;0.30;;
38487;SDS011;57384;51.986;4.458;2023-04-29T16:47:40;1.83;;;0.20;;
38487;SDS011;57384;51.986;4.458;2023-04-29T16:50:34;0.98;;;0.30;;
38487;SDS011;57384;51.986;4.458;2023-04-29T16:53:19;1.52;;;0.30;;
38487;SDS011;57384;51.986;4.458;2023-04-29T16:56:03;1.02;;;0.20;;
38487;SDS011;57384;51.986;4.458;2023-04-29T16:58:51;3.95;;;0.20;;
38487;SDS011;57384;51.986;4.458;2023-04-29T17:01:37;1.08;;;0.20;;
38487;SDS011;57384;51.986;4.458;2023-04-29T17:04:22;1.65;;;0.25;;
38487;SDS011;57384;51.986;4.458;2023-04-29T17:07:06;1.08;;;0.10;;
38487;SDS011;57384;51.986;4.458;2023-04-29T17:09:51;0.77;;;0.20;;
38487;SDS011;57384;51.986;4.458;2023-04-29T17:12:52;1.75;;;0.25;;
38487;SDS011;57384;51.986;4.458;2023-04-29T17:15:36;3.55;;;0.25;;
38487;SDS011;57384;51.986;4.458;2023-04-29T17:18:21;2.15;;;0.30;;
38487;SDS011;57384;51.986;4.458;2023-04-29T17:21:05;1.45;;;0.30;;
38487;SDS011;57384;51.986;4.458;2023-04-29T17:23:49;4.47;;;0.20;;
38487;SDS011;57384;51.986;4.458;2023-04-29T17:26:33;1.50;;;0.20;;
38487;SDS011;57384;51.986;4.458;2023-04-29T17:29:18;1.05;;;0.20;;
38487;SDS011;57384;51.986;4.458;2023-04-29T17:32:02;1.85;;;0.20;;
38487;SDS011;57384;51.986;4.458;2023-04-29T17:34:46;1.25;;;0.20;;
38487;SDS011;57384;51.986;4.458;2023-04-29T17:37:36;1.42;;;0.20;;
38487;SDS011;57384;51.986;4.458;2023-04-29T17:40:20;2.47;;;0.20;;
38487;SDS011;57384;51.986;4.458;2023-04-29T17:43:05;3.45;;;0.20;;
38487;SDS011;57384;51.986;4.458;2023-04-29T17:45:49;3.90;;;0.20;;
38487;SDS011;57384;51.986;4.458;2023-04-29T17:48:33;1.42;;;0.20;;
38487;SDS011;57384;51.986;4.458;2023-04-29T17:51:17;2.50;;;0.20;;
38487;SDS011;57384;51.986;4.458;2023-04-29T17:54:05;4.85;;;0.30;;
38487;SDS011;57384;51.986;4.458;2023-04-29T17:56:50;0.98;;;0.30;;
38487;SDS011;57384;51.986;4.458;2023-04-29T17:59:34;4.78;;;0.30;;
38487;SDS011;57384;51.986;4.458;2023-04-29T18:02:21;1.83;;;0.25;;
38487;SDS011;57384;51.986;4.458;2023-04-29T18:05:06;1.15;;;0.20;;
38487;SDS011;57384;51.986;4.458;2023-04-29T18:07:50;0.98;;;0.17;;
38487;SDS011;57384;51.986;4.458;2023-04-29T18:10:34;1.40;;;0.20;;
38487;SDS011;57384;51.986;4.458;2023-04-29T18:13:21;2.30;;;0.20;;
38487;SDS011;57384;51.986;4.458;2023-04-29T18:16:06;1.67;;;0.10;;
38487;SDS011;57384;51.986;4.458;2023-04-29T18:18:51;0.80;;;0.17;;
38487;SDS011;57384;51.986;4.458;2023-04-29T18:21:39;1.05;;;0.20;;
38487;SDS011;57384;51.986;4.458;2023-04-29T18:24:24;3.33;;;0.30;;
38487;SDS011;57384;51.986;4.458;2023-04-29T18:27:08;0.82;;;0.20;;
38487;SDS011;57384;51.986;4.458;2023-04-29T18:29:52;2.55;;;0.20;;
38487;SDS011;57384;51.986;4.458;2023-04-29T18:32:36;0.82;;;0.20;;
38487;SDS011;57384;51.986;4.458;2023-04-29T18:35:21;3.75;;;0.20;;